createdAt,value
2019-06-01T00:00:55.168Z,3.30
2019-06-01T00:03:23.547Z,3.70
2019-06-01T00:05:51.820Z,3.27
2019-06-01T00:08:20.138Z,3.30
2019-06-01T00:10:49.518Z,3.30
2019-06-01T00:13:18.061Z,3.40
2019-06-01T00:15:46.308Z,3.10
2019-06-01T00:18:14.664Z,3.30
2019-06-01T00:20:44.223Z,3.60
2019-06-01T00:23:12.737Z,3.27
2019-06-01T00:25:41.021Z,3.20
2019-06-01T00:28:09.280Z,3.17
2019-06-01T00:30:37.535Z,3.30
2019-06-01T00:33:05.808Z,3.50
2019-06-01T00:35:34.063Z,3.57
2019-06-01T00:38:02.321Z,3.40
2019-06-01T00:40:30.678Z,3.60
2019-06-01T00:42:58.934Z,2.67
2019-06-01T00:45:27.197Z,3.80
2019-06-01T00:47:55.475Z,3.90
2019-06-01T00:50:23.733Z,3.80
2019-06-01T00:52:53.181Z,4.17
2019-06-01T00:55:21.754Z,4.00
2019-06-01T00:57:50.012Z,3.53
2019-06-01T01:00:18.264Z,3.47
2019-06-01T01:02:46.568Z,4.33
2019-06-01T01:05:19.281Z,3.53
2019-06-01T01:07:48.700Z,3.90
2019-06-01T01:10:17.184Z,3.87
2019-06-01T01:13:03.652Z,4.60
2019-06-01T01:15:35.435Z,4.20
2019-06-01T01:18:04.936Z,3.90
2019-06-01T01:20:33.563Z,4.73
2019-06-01T01:23:01.836Z,4.60
2019-06-01T01:25:30.265Z,4.10
2019-06-01T01:27:58.581Z,4.27
2019-06-01T01:30:26.882Z,4.27
2019-06-01T01:32:55.813Z,4.30
2019-06-01T01:35:24.382Z,4.67
2019-06-01T01:37:58.412Z,5.30
2019-06-01T01:40:27.503Z,4.60
2019-06-01T01:42:56.500Z,4.20
2019-06-01T01:45:26.073Z,5.27
2019-06-01T01:47:55.066Z,5.27
2019-06-01T01:50:25.519Z,4.80
2019-06-01T01:52:54.781Z,5.10
2019-06-01T01:55:23.343Z,5.40
2019-06-01T01:57:51.593Z,5.43
2019-06-01T02:00:47.210Z,4.90
2019-06-01T02:03:15.472Z,5.53
2019-06-01T02:06:03.411Z,5.37
2019-06-01T02:08:31.909Z,5.20
2019-06-01T02:11:01.693Z,5.03
2019-06-01T02:13:30.222Z,5.53
2019-06-01T02:15:58.482Z,5.00
2019-06-01T02:18:26.783Z,5.40
2019-06-01T02:20:56.070Z,5.23
2019-06-01T02:23:24.687Z,5.13
2019-06-01T02:25:53.005Z,5.20
2019-06-01T02:28:21.288Z,5.30
2019-06-01T02:30:49.545Z,5.23
2019-06-01T02:33:17.956Z,5.43
2019-06-01T02:35:46.236Z,5.50
2019-06-01T02:38:14.497Z,5.43
2019-06-01T02:40:42.827Z,5.80
2019-06-01T02:43:11.102Z,5.47
2019-06-01T02:45:39.349Z,5.40
2019-06-01T02:48:07.690Z,5.17
2019-06-01T02:50:36.144Z,5.67
2019-06-01T02:53:05.785Z,5.57
2019-06-01T02:55:34.187Z,5.47
2019-06-01T02:58:02.521Z,5.43
2019-06-01T03:00:48.951Z,5.60
2019-06-01T03:03:17.374Z,6.20
2019-06-01T03:05:46.206Z,5.90
2019-06-01T03:08:16.248Z,6.17
2019-06-01T03:10:45.341Z,5.90
2019-06-01T03:13:13.591Z,6.07
2019-06-01T03:15:41.943Z,6.60
2019-06-01T03:18:11.838Z,6.20
2019-06-01T03:20:40.215Z,6.13
2019-06-01T03:23:08.472Z,5.87
2019-06-01T03:25:36.748Z,6.77
2019-06-01T03:28:06.182Z,6.53
2019-06-01T03:30:45.223Z,6.00
2019-06-01T03:33:11.466Z,6.43
2019-06-01T03:35:39.787Z,5.70
2019-06-01T03:38:09.223Z,6.10
2019-06-01T03:40:37.591Z,7.40
2019-06-01T03:43:07.169Z,6.97
2019-06-01T03:45:35.584Z,6.73
2019-06-01T03:48:04.659Z,7.03
2019-06-01T03:50:32.985Z,7.47
2019-06-01T03:53:01.753Z,6.30
2019-06-01T03:55:30.315Z,7.60
2019-06-01T03:57:58.582Z,7.00
2019-06-01T04:00:26.863Z,7.67
2019-06-01T04:02:55.187Z,6.97
2019-06-01T04:05:23.446Z,7.03
2019-06-01T04:07:51.725Z,7.67
2019-06-01T04:10:19.984Z,6.97
2019-06-01T04:12:48.323Z,7.20
2019-06-01T04:15:16.971Z,7.40
2019-06-01T04:17:45.481Z,7.97
2019-06-01T04:20:13.800Z,7.47
2019-06-01T04:22:42.164Z,7.73
2019-06-01T04:25:10.426Z,8.47
2019-06-01T04:27:38.675Z,7.37
2019-06-01T04:30:09.282Z,7.27
2019-06-01T04:32:49.376Z,6.87
2019-06-01T04:35:08.911Z,7.30
2019-06-01T04:37:37.444Z,7.53
2019-06-01T04:40:07.430Z,8.47
2019-06-01T04:42:36.115Z,7.00
2019-06-01T04:45:06.898Z,8.40
2019-06-01T04:47:36.240Z,7.60
2019-06-01T04:50:06.694Z,7.60
2019-06-01T04:52:35.343Z,7.37
2019-06-01T04:55:05.349Z,7.53
2019-06-01T04:57:33.606Z,7.97
2019-06-01T05:00:02.541Z,7.80
2019-06-01T05:02:31.080Z,7.77
2019-06-01T05:04:59.336Z,7.43
2019-06-01T05:07:27.616Z,7.50
2019-06-01T05:09:55.928Z,7.53
2019-06-01T05:12:24.199Z,8.03
2019-06-01T05:14:52.485Z,7.63
2019-06-01T05:17:20.746Z,8.07
2019-06-01T05:19:49.005Z,7.70
2019-06-01T05:22:17.385Z,7.50
2019-06-01T05:24:45.645Z,7.43
2019-06-01T05:27:15.155Z,6.90
2019-06-01T05:29:43.751Z,6.90
2019-06-01T05:32:12.592Z,6.90
2019-06-01T05:34:41.143Z,6.63
2019-06-01T05:37:10.787Z,6.73
2019-06-01T05:39:39.405Z,6.50
2019-06-01T05:42:08.896Z,5.97
2019-06-01T05:44:37.520Z,5.60
2019-06-01T05:47:05.787Z,5.73
2019-06-01T05:49:34.032Z,5.67
2019-06-01T05:52:02.308Z,5.30
2019-06-01T05:54:30.560Z,5.47
2019-06-01T05:56:58.895Z,5.20
2019-06-01T05:59:27.168Z,5.10
2019-06-01T06:01:55.429Z,4.80
2019-06-01T06:04:23.687Z,4.73
2019-06-01T06:06:51.965Z,5.17
2019-06-01T06:09:20.220Z,5.60
2019-06-01T06:11:48.483Z,5.23
2019-06-01T06:14:17.615Z,6.43
2019-06-01T06:16:46.086Z,6.07
2019-06-01T06:19:17.812Z,5.33
2019-06-01T06:21:44.336Z,6.13
2019-06-01T06:24:12.638Z,5.13
2019-06-01T06:26:40.962Z,6.00
2019-06-01T06:29:09.310Z,5.10
2019-06-01T06:31:37.721Z,5.53
2019-06-01T06:34:05.983Z,5.43
2019-06-01T06:36:34.284Z,5.70
2019-06-01T06:39:04.721Z,5.03
2019-06-01T06:41:32.525Z,4.97
2019-06-01T06:44:01.002Z,5.90
2019-06-01T06:46:29.272Z,6.30
2019-06-01T06:48:57.703Z,7.00
2019-06-01T06:51:26.040Z,6.07
2019-06-01T06:53:54.368Z,5.83
2019-06-01T06:56:22.625Z,5.80
2019-06-01T06:58:50.922Z,5.60
2019-06-01T07:01:19.263Z,5.37
2019-06-01T07:03:47.702Z,6.07
2019-06-01T07:06:25.682Z,6.00
2019-06-01T07:08:54.318Z,5.30
2019-06-01T07:11:23.417Z,5.80
2019-06-01T07:13:52.065Z,5.47
2019-06-01T07:16:21.441Z,5.03
2019-06-01T07:18:49.813Z,5.27
2019-06-01T07:21:19.286Z,4.80
2019-06-01T07:23:49.099Z,5.00
2019-06-01T07:26:17.408Z,4.70
2019-06-01T07:28:45.755Z,5.47
2019-06-01T07:31:14.085Z,5.70
2019-06-01T07:33:44.100Z,5.30
2019-06-01T07:36:12.461Z,5.10
2019-06-01T07:38:40.718Z,5.00
2019-06-01T07:41:09.004Z,4.90
2019-06-01T07:43:37.296Z,4.20
2019-06-01T07:46:05.602Z,5.70
2019-06-01T07:48:53.326Z,4.27
2019-06-01T07:51:21.588Z,3.97
2019-06-01T07:53:49.914Z,4.43
2019-06-01T07:56:18.265Z,3.77
2019-06-01T07:58:46.552Z,3.67
2019-06-01T08:01:15.105Z,3.93
2019-06-01T08:03:43.677Z,7.83
2019-06-01T08:06:11.990Z,8.70
2019-06-01T08:08:40.257Z,4.70
2019-06-01T08:11:08.550Z,5.37
2019-06-01T08:13:36.899Z,6.53
2019-06-01T08:16:05.176Z,5.20
2019-06-01T08:18:33.521Z,4.80
2019-06-01T08:21:01.851Z,5.00
2019-06-01T08:23:30.319Z,5.37
2019-06-01T08:25:58.767Z,4.87
2019-06-01T08:28:27.083Z,5.70
2019-06-01T08:30:55.365Z,4.67
2019-06-01T08:33:26.415Z,8.03
2019-06-01T08:35:53.673Z,5.27
2019-06-01T08:38:23.253Z,4.90
2019-06-01T08:40:51.693Z,4.37
2019-06-01T08:43:19.940Z,4.27
2019-06-01T08:45:48.394Z,4.23
2019-06-01T08:48:16.765Z,4.07
2019-06-01T08:50:46.198Z,4.27
2019-06-01T08:53:14.771Z,3.93
2019-06-01T08:55:43.061Z,12.93
2019-06-01T08:58:11.338Z,5.07
2019-06-01T09:00:39.683Z,3.90
2019-06-01T09:03:08.252Z,4.70
2019-06-01T09:05:36.541Z,6.20
2019-06-01T09:08:04.808Z,6.13
2019-06-01T09:10:33.318Z,3.87
2019-06-01T09:13:01.841Z,4.73
2019-06-01T09:15:31.360Z,4.20
2019-06-01T09:17:59.862Z,4.23
2019-06-01T09:20:31.906Z,4.67
2019-06-01T09:23:05.652Z,4.63
2019-06-01T09:25:29.702Z,4.73
2019-06-01T09:27:57.975Z,6.40
2019-06-01T09:30:27.995Z,13.87
2019-06-01T09:32:57.556Z,6.03
2019-06-01T09:35:46.517Z,8.53
2019-06-01T09:37:59.717Z,5.67
2019-06-01T09:40:29.961Z,4.80
2019-06-01T09:42:58.951Z,5.20
2019-06-01T09:45:27.830Z,5.50
2019-06-01T09:47:56.306Z,4.33
2019-06-01T09:50:24.621Z,4.47
2019-06-01T09:52:58.340Z,4.40
2019-06-01T09:55:27.746Z,3.97
2019-06-01T09:57:57.232Z,5.07
2019-06-01T10:00:25.580Z,5.10
2019-06-01T10:02:57.513Z,3.90
2019-06-01T10:05:28.245Z,4.40
2019-06-01T10:07:58.519Z,4.80
2019-06-01T10:10:26.789Z,4.73
2019-06-01T10:12:55.053Z,5.00
2019-06-01T10:15:23.389Z,5.50
2019-06-01T10:17:51.773Z,5.10
2019-06-01T10:20:20.116Z,5.17
2019-06-01T10:22:48.389Z,5.00
2019-06-01T10:25:16.835Z,4.60
2019-06-01T10:27:45.097Z,4.63
2019-06-01T10:30:13.506Z,4.97
2019-06-01T10:32:42.166Z,4.77
2019-06-01T10:35:10.690Z,4.97
2019-06-01T10:37:39.961Z,4.90
2019-06-01T10:40:08.220Z,4.77
2019-06-01T10:42:38.012Z,5.00
2019-06-01T10:45:10.715Z,4.33
2019-06-01T10:47:40.410Z,4.33
2019-06-01T10:50:09.258Z,4.37
2019-06-01T10:52:38.459Z,4.50
2019-06-01T10:55:15.468Z,4.47
2019-06-01T10:57:44.572Z,3.80
2019-06-01T11:00:13.283Z,5.13
2019-06-01T11:02:41.577Z,3.90
2019-06-01T11:05:09.898Z,5.50
2019-06-01T11:07:39.086Z,5.43
2019-06-01T11:10:08.396Z,4.90
2019-06-01T11:12:36.886Z,5.30
2019-06-01T11:15:06.580Z,5.20
2019-06-01T11:17:34.918Z,5.40
2019-06-01T11:20:04.545Z,4.17
2019-06-01T11:22:33.438Z,4.90
2019-06-01T11:25:01.922Z,3.93
2019-06-01T11:27:37.797Z,3.70
2019-06-01T11:30:13.772Z,2.70
2019-06-01T11:32:41.893Z,2.67
2019-06-01T11:35:12.480Z,2.63
2019-06-01T11:37:40.772Z,1.70
2019-06-01T11:40:09.024Z,1.43
2019-06-01T11:42:39.122Z,1.70
2019-06-01T11:45:07.949Z,1.50
2019-06-01T11:47:36.781Z,1.17
2019-06-01T11:50:07.932Z,1.10
2019-06-01T11:52:37.019Z,1.27
2019-06-01T11:55:08.829Z,1.20
2019-06-01T11:57:37.556Z,1.00
2019-06-01T12:00:13.691Z,1.10
2019-06-01T12:02:42.039Z,1.00
2019-06-01T12:05:10.372Z,1.00
2019-06-01T12:07:39.745Z,1.75
2019-06-01T12:10:08.281Z,1.52
2019-06-01T12:12:37.990Z,1.60
2019-06-01T12:15:06.571Z,1.60
2019-06-01T12:17:34.844Z,2.27
2019-06-01T12:20:04.684Z,2.83
2019-06-01T12:22:36.710Z,2.67
2019-06-01T12:25:06.464Z,2.60
2019-06-01T12:27:35.007Z,2.55
2019-06-01T12:30:07.075Z,2.25
2019-06-01T12:32:35.355Z,2.67
2019-06-01T12:35:07.173Z,2.90
2019-06-01T12:38:01.051Z,2.70
2019-06-01T12:40:19.517Z,3.08
2019-06-01T12:42:47.869Z,3.70
2019-06-01T12:45:22.868Z,2.98
2019-06-01T12:47:54.142Z,2.77
2019-06-01T12:50:19.025Z,3.35
2019-06-01T12:52:48.502Z,3.05
2019-06-01T12:55:17.230Z,3.55
2019-06-01T12:57:46.900Z,3.95
2019-06-01T13:00:15.590Z,2.95
2019-06-01T13:02:48.992Z,3.60
2019-06-01T13:05:14.522Z,3.55
2019-06-01T13:07:55.175Z,3.47
2019-06-01T13:10:12.836Z,3.10
2019-06-01T13:12:41.138Z,3.40
2019-06-01T13:15:10.619Z,3.08
2019-06-01T13:17:38.876Z,3.60
2019-06-01T13:20:07.541Z,3.98
2019-06-01T13:22:35.855Z,3.92
2019-06-01T13:25:05.649Z,3.65
2019-06-01T13:27:33.936Z,4.42
2019-06-01T13:30:02.201Z,3.30
2019-06-01T13:32:30.558Z,3.45
2019-06-01T13:34:58.832Z,3.08
2019-06-01T13:37:27.088Z,4.15
2019-06-01T13:39:58.072Z,3.62
2019-06-01T13:42:25.435Z,4.00
2019-06-01T13:44:53.765Z,3.00
2019-06-01T13:47:23.551Z,3.70
2019-06-01T13:49:51.971Z,3.10
2019-06-01T13:52:20.550Z,3.30
2019-06-01T13:54:48.823Z,3.00
2019-06-01T13:57:17.440Z,2.83
2019-06-01T13:59:46.878Z,3.05
2019-06-01T14:02:15.332Z,3.30
2019-06-01T14:04:45.120Z,3.12
2019-06-01T14:07:13.549Z,2.95
2019-06-01T14:09:41.809Z,3.30
2019-06-01T14:12:10.110Z,2.98
2019-06-01T14:14:38.434Z,3.20
2019-06-01T14:17:06.764Z,3.05
2019-06-01T14:19:35.051Z,3.23
2019-06-01T14:22:03.429Z,3.33
2019-06-01T14:24:31.820Z,2.55
2019-06-01T14:27:00.380Z,3.30
2019-06-01T14:29:28.896Z,3.90
2019-06-01T14:31:57.398Z,3.45
2019-06-01T14:34:25.926Z,4.25
2019-06-01T14:36:54.588Z,3.60
2019-06-01T14:39:23.083Z,3.60
2019-06-01T14:41:51.364Z,3.33
2019-06-01T14:44:19.628Z,4.08
2019-06-01T14:46:55.661Z,3.72
2019-06-01T14:49:17.988Z,4.03
2019-06-01T14:51:47.418Z,4.53
2019-06-01T14:54:15.986Z,4.43
2019-06-01T14:56:44.267Z,4.50
2019-06-01T14:59:12.524Z,4.55
2019-06-01T15:01:40.775Z,5.03
2019-06-01T15:04:09.096Z,4.07
2019-06-01T15:06:37.361Z,4.53
2019-06-01T15:09:18.439Z,5.10
2019-06-01T15:11:38.249Z,4.70
2019-06-01T15:14:06.772Z,4.80
2019-06-01T15:16:35.033Z,5.30
2019-06-01T15:19:03.489Z,4.33
2019-06-01T15:21:31.746Z,4.03
2019-06-01T15:24:00.002Z,4.70
2019-06-01T15:26:28.276Z,4.97
2019-06-01T15:28:57.057Z,5.33
2019-06-01T15:31:25.776Z,5.70
2019-06-01T15:33:55.172Z,5.63
2019-06-01T15:36:23.564Z,5.60
2019-06-01T15:38:51.828Z,5.77
2019-06-01T15:41:20.112Z,4.73
2019-06-01T15:43:50.928Z,4.10
2019-06-01T15:46:19.237Z,4.60
2019-06-01T15:48:48.232Z,5.60
2019-06-01T15:51:16.700Z,4.47
2019-06-01T15:53:45.015Z,4.97
2019-06-01T15:56:13.343Z,5.25
2019-06-01T15:58:52.383Z,5.17
2019-06-01T16:01:11.637Z,5.77
2019-06-01T16:03:39.919Z,5.90
2019-06-01T16:06:08.544Z,4.93
2019-06-01T16:08:36.805Z,4.90
2019-06-01T16:11:06.539Z,5.37
2019-06-01T16:13:39.365Z,5.60
2019-06-01T16:16:07.705Z,5.30
2019-06-01T16:18:36.093Z,5.07
2019-06-01T16:21:04.435Z,5.00
2019-06-01T16:23:48.851Z,5.73
2019-06-01T16:26:13.280Z,4.50
2019-06-01T16:28:32.743Z,5.40
2019-06-01T16:31:06.122Z,5.10
2019-06-01T16:33:34.466Z,4.30
2019-06-01T16:36:03.978Z,4.80
2019-06-01T16:38:33.768Z,4.27
2019-06-01T16:41:11.866Z,4.77
2019-06-01T16:43:41.115Z,4.77
2019-06-01T16:46:09.390Z,4.73
2019-06-01T16:48:37.666Z,4.27
2019-06-01T16:51:13.367Z,5.50
2019-06-01T16:53:41.647Z,5.90
2019-06-01T16:56:09.900Z,5.37
2019-06-01T16:58:38.151Z,5.57
2019-06-01T17:01:06.765Z,5.60
2019-06-01T17:03:35.060Z,5.27
2019-06-01T17:06:03.317Z,5.27
2019-06-01T17:08:31.588Z,5.43
2019-06-01T17:11:00.684Z,5.00
2019-06-01T17:13:29.260Z,5.93
2019-06-01T17:15:58.823Z,5.80
2019-06-01T17:18:27.181Z,5.40
2019-06-01T17:20:55.433Z,5.77
2019-06-01T17:23:27.532Z,5.07
2019-06-01T17:25:53.681Z,5.23
2019-06-01T17:28:22.016Z,5.73
2019-06-01T17:30:50.370Z,6.93
2019-06-01T17:33:18.737Z,4.90
2019-06-01T17:35:47.009Z,5.50
2019-06-01T17:38:15.343Z,5.73
2019-06-01T17:40:43.756Z,5.00
2019-06-01T17:43:13.211Z,4.93
2019-06-01T17:45:42.117Z,5.27
2019-06-01T17:48:24.686Z,4.10
2019-06-01T17:50:40.354Z,3.53
2019-06-01T17:53:08.906Z,3.80
2019-06-01T17:55:38.501Z,3.23
2019-06-01T17:58:07.919Z,4.00
2019-06-01T18:00:36.377Z,3.10
2019-06-01T18:03:06.023Z,3.67
2019-06-01T18:05:35.387Z,3.60
2019-06-01T18:08:03.897Z,4.03
2019-06-01T18:10:32.292Z,3.80
2019-06-01T18:13:00.548Z,3.67
2019-06-01T18:15:28.820Z,3.50
2019-06-01T18:17:57.073Z,3.03
2019-06-01T18:20:25.324Z,3.90
2019-06-01T18:22:53.605Z,3.10
2019-06-01T18:25:27.052Z,3.60
2019-06-01T18:27:55.311Z,3.60
2019-06-01T18:30:23.636Z,3.70
2019-06-01T18:32:52.200Z,3.70
2019-06-01T18:35:20.461Z,3.87
2019-06-01T18:37:48.749Z,3.73
2019-06-01T18:40:17.572Z,3.53
2019-06-01T18:42:45.924Z,3.17
2019-06-01T18:45:14.206Z,3.43
2019-06-01T18:47:42.468Z,3.20
2019-06-01T18:50:15.992Z,2.83
2019-06-01T18:52:42.664Z,3.27
2019-06-01T18:55:12.539Z,3.33
2019-06-01T18:57:41.828Z,2.87
2019-06-01T19:00:12.025Z,3.00
2019-06-01T19:02:40.096Z,3.60
2019-06-01T19:05:09.160Z,3.27
2019-06-01T19:07:37.584Z,3.60
2019-06-01T19:10:07.357Z,2.90
2019-06-01T19:12:35.674Z,3.80
2019-06-01T19:15:22.852Z,3.13
2019-06-01T19:17:38.333Z,3.80
2019-06-01T19:20:08.380Z,3.27
2019-06-01T19:22:37.192Z,3.95
2019-06-01T19:25:08.707Z,3.30
2019-06-01T19:27:37.080Z,3.30
2019-06-01T19:30:07.312Z,3.53
2019-06-01T19:32:35.574Z,3.30
2019-06-01T19:35:04.668Z,3.83
2019-06-01T19:37:37.964Z,3.50
2019-06-01T19:40:07.065Z,3.67
2019-06-01T19:42:35.531Z,3.70
2019-06-01T19:45:13.306Z,4.40
2019-06-01T19:47:36.155Z,4.00
2019-06-01T19:50:06.548Z,4.40
2019-06-01T19:52:34.824Z,4.43
2019-06-01T19:55:03.666Z,3.93
2019-06-01T19:57:31.997Z,4.10
2019-06-01T20:00:00.357Z,4.10
2019-06-01T20:02:34.113Z,5.03
2019-06-01T20:04:58.601Z,4.63
2019-06-01T20:07:28.099Z,5.23
2019-06-01T20:09:56.433Z,5.13
2019-06-01T20:12:24.688Z,6.07
2019-06-01T20:14:52.956Z,4.93
2019-06-01T20:17:24.638Z,4.83
2019-06-01T20:19:51.202Z,5.23
2019-06-01T20:22:19.471Z,4.70
2019-06-01T20:24:47.720Z,4.73
2019-06-01T20:27:15.975Z,4.70
2019-06-01T20:29:44.265Z,5.10
2019-06-01T20:32:13.629Z,5.50
2019-06-01T20:34:42.338Z,5.43
2019-06-01T20:37:11.797Z,6.07
2019-06-01T20:39:43.500Z,6.10
2019-06-01T20:42:22.292Z,5.83
2019-06-01T20:44:42.670Z,5.67
2019-06-01T20:47:12.413Z,6.53
2019-06-01T20:49:41.120Z,6.30
2019-06-01T20:52:10.638Z,5.63
2019-06-01T20:54:38.982Z,6.03
2019-06-01T20:57:07.244Z,6.33
2019-06-01T20:59:35.532Z,5.80
2019-06-01T21:02:04.019Z,6.23
2019-06-01T21:04:32.377Z,5.77
2019-06-01T21:07:00.648Z,5.90
2019-06-01T21:09:28.913Z,6.93
2019-06-01T21:11:57.197Z,6.27
2019-06-01T21:14:25.549Z,7.05
2019-06-01T21:16:53.808Z,7.23
2019-06-01T21:19:22.423Z,7.23
2019-06-01T21:21:50.958Z,6.13
2019-06-01T21:24:19.295Z,6.80
2019-06-01T21:26:47.598Z,6.63
2019-06-01T21:29:16.733Z,6.83
2019-06-01T21:31:45.049Z,6.37
2019-06-01T21:34:13.300Z,6.43
2019-06-01T21:36:42.052Z,7.47
2019-06-01T21:39:10.517Z,7.00
2019-06-01T21:41:38.783Z,6.17
2019-06-01T21:44:07.125Z,7.70
2019-06-01T21:46:35.392Z,7.27
2019-06-01T21:49:03.798Z,7.53
2019-06-01T21:51:32.164Z,6.97
2019-06-01T21:54:00.433Z,7.40
2019-06-01T21:56:28.683Z,7.07
2019-06-01T21:58:57.906Z,6.90
2019-06-01T22:01:27.002Z,8.00
2019-06-01T22:03:55.329Z,8.30
2019-06-01T22:06:23.640Z,9.50
2019-06-01T22:08:52.894Z,8.80
2019-06-01T22:11:21.701Z,9.67
2019-06-01T22:13:50.096Z,9.47
2019-06-01T22:16:19.426Z,9.70
2019-06-01T22:18:47.993Z,10.13
2019-06-01T22:21:17.520Z,9.97
2019-06-01T22:23:45.913Z,9.17
2019-06-01T22:26:14.175Z,10.77
2019-06-01T22:28:43.484Z,9.53
2019-06-01T22:31:11.756Z,10.97
2019-06-01T22:33:40.020Z,11.40
2019-06-01T22:36:08.297Z,10.97
2019-06-01T22:38:36.572Z,11.07
2019-06-01T22:41:04.846Z,11.67
2019-06-01T22:43:45.879Z,11.67
2019-06-01T22:46:03.109Z,11.60
2019-06-01T22:48:31.437Z,11.40
2019-06-01T22:50:59.715Z,11.17
2019-06-01T22:53:28.300Z,11.77
2019-06-01T22:55:56.708Z,12.13
2019-06-01T22:58:25.316Z,11.57
2019-06-01T23:00:53.826Z,11.27
2019-06-01T23:03:22.095Z,12.20
2019-06-01T23:05:50.447Z,11.83
2019-06-01T23:08:18.714Z,11.20
2019-06-01T23:10:46.981Z,11.20
2019-06-01T23:13:15.256Z,12.07
2019-06-01T23:15:43.526Z,11.00
2019-06-01T23:18:11.837Z,11.13
2019-06-01T23:20:40.148Z,10.63
2019-06-01T23:23:14.365Z,10.00
2019-06-01T23:25:42.679Z,11.47
2019-06-01T23:28:11.018Z,11.87
2019-06-01T23:30:39.400Z,10.23
2019-06-01T23:33:07.780Z,10.87
2019-06-01T23:35:36.078Z,11.40
2019-06-01T23:38:04.340Z,12.73
2019-06-01T23:40:32.810Z,11.10
2019-06-01T23:43:01.201Z,10.30
2019-06-01T23:45:30.842Z,11.90
2019-06-01T23:47:59.550Z,12.30
2019-06-01T23:50:29.154Z,12.17
2019-06-01T23:53:12.792Z,11.20
2019-06-01T23:55:29.943Z,12.03
2019-06-01T23:57:58.331Z,12.87
